Time;durP1;ratioP1;P1;durP2;ratioP2;P2;SDS_P1;SDS_P2;PMS_P1;PMS_P2;Temp;Humidity;BMP_temperature;BMP_pressure;BME280_temperature;BME280_humidity;BME280_pressure;Samples;Min_cycle;Max_cycle;Signal;HPM_P1;HPM_P2
2021/12/08 00:01:40;;;;;;;3.13;1.57;;;7.40;95.20;;;;;;6072777;23;20420;-86
2021/12/08 00:04:07;;;;;;;2.40;1.00;;;7.50;95.30;;;;;;6079261;23;20438;-86
2021/12/08 00:06:37;;;;;;;2.30;1.53;;;7.40;95.40;;;;;;6076022;23;20425;-86
2021/12/08 00:09:35;;;;;;;1.03;0.80;;;7.30;95.90;;;;;;6076126;23;20415;-86
2021/12/08 00:14:52;;;;;;;3.87;1.30;;;7.40;96.50;;;;;;6102491;23;20433;-83
2021/12/08 00:17:19;;;;;;;1.87;1.27;;;7.40;96.80;;;;;;6051130;23;20853;-87
2021/12/08 00:19:47;;;;;;;1.80;1.27;;;7.50;97.50;;;;;;6087384;23;20467;-88
2021/12/08 00:22:14;;;;;;;1.90;1.50;;;7.30;98.20;;;;;;6089184;23;20419;-84
2021/12/08 00:24:44;;;;;;;2.50;1.40;;;7.20;99.00;;;;;;6080390;23;20464;-85
2021/12/08 00:27:14;;;;;;;1.63;1.20;;;7.20;99.40;;;;;;6081901;23;20419;-86
2021/12/08 00:30:00;;;;;;;5.70;1.33;;;7.10;99.90;;;;;;6080459;23;20419;-85
2021/12/08 00:32:53;;;;;;;4.63;1.00;;;7.10;99.90;;;;;;6082836;23;20414;-85
2021/12/08 00:35:28;;;;;;;4.17;1.57;;;7.10;99.90;;;;;;6078791;23;20495;-85
2021/12/08 00:38:09;;;;;;;1.23;1.13;;;7.10;99.90;;;;;;6080180;23;20526;-89
2021/12/08 00:40:40;;;;;;;3.97;1.40;;;7.10;99.90;;;;;;6081242;23;20446;-84
2021/12/08 00:43:07;;;;;;;1.70;1.60;;;7.00;99.90;;;;;;6057529;23;20415;-87
2021/12/08 00:45:34;;;;;;;1.43;1.07;;;6.90;99.90;;;;;;6079293;23;20480;-86
2021/12/08 00:48:05;;;;;;;2.83;2.63;;;6.90;99.90;;;;;;6075998;23;21138;-87
2021/12/08 00:50:43;;;;;;;2.90;1.10;;;7.00;99.90;;;;;;6062866;23;20412;-84
2021/12/08 00:53:19;;;;;;;1.23;0.90;;;7.00;99.90;;;;;;6071580;23;20426;-85
2021/12/08 00:55:46;;;;;;;1.13;1.00;;;7.00;99.90;;;;;;6097170;23;20543;-83
2021/12/08 00:58:19;;;;;;;3.07;1.60;;;6.90;99.90;;;;;;6071846;23;20510;-85
2021/12/08 01:00:54;;;;;;;1.80;1.10;;;7.00;99.90;;;;;;6077646;23;20447;-85
2021/12/08 01:03:26;;;;;;;1.50;1.33;;;7.00;99.90;;;;;;6074989;23;20419;-86
2021/12/08 01:06:02;;;;;;;3.23;1.40;;;6.90;99.90;;;;;;6077665;23;20429;-85
2021/12/08 01:08:30;;;;;;;1.43;1.17;;;6.90;99.90;;;;;;6076350;23;20466;-87
2021/12/08 01:11:09;;;;;;;3.63;1.40;;;6.80;99.90;;;;;;6094898;23;20419;-86
2021/12/08 01:13:41;;;;;;;5.23;1.20;;;7.00;99.90;;;;;;6081308;23;20466;-85
2021/12/08 01:16:13;;;;;;;4.33;2.13;;;7.00;99.90;;;;;;6077762;23;20487;-86
2021/12/08 01:18:54;;;;;;;1.63;1.23;;;6.90;99.90;;;;;;6102966;23;20454;-85
2021/12/08 01:21:21;;;;;;;3.40;1.30;;;7.10;99.90;;;;;;6076731;23;20565;-85
2021/12/08 01:24:13;;;;;;;1.37;1.20;;;7.10;99.90;;;;;;6078758;23;20467;-83
2021/12/08 01:26:40;;;;;;;3.63;1.40;;;7.20;99.90;;;;;;6075438;23;20443;-83
2021/12/08 01:29:08;;;;;;;0.87;0.87;;;7.20;99.90;;;;;;6102297;23;20416;-84
2021/12/08 01:31:41;;;;;;;2.17;1.03;;;7.30;99.90;;;;;;6070816;23;20878;-84
2021/12/08 01:34:18;;;;;;;1.53;0.97;;;7.20;99.90;;;;;;6081224;23;20424;-84
2021/12/08 01:36:53;;;;;;;1.07;1.03;;;7.20;99.90;;;;;;6079244;23;20422;-85
2021/12/08 01:39:20;;;;;;;3.80;1.60;;;7.10;99.90;;;;;;6101252;23;20448;-85
2021/12/08 01:41:52;;;;;;;2.20;1.10;;;7.20;99.90;;;;;;6077635;23;21359;-85
2021/12/08 01:47:07;;;;;;;1.90;1.20;;;7.30;99.90;;;;;;6104496;23;20403;-86
2021/12/08 01:49:34;;;;;;;3.10;1.43;;;7.30;99.90;;;;;;6070122;23;20934;-85
2021/12/08 01:52:02;;;;;;;1.23;1.13;;;7.30;99.90;;;;;;6063918;23;20419;-85
2021/12/08 01:54:32;;;;;;;1.30;1.20;;;7.20;99.90;;;;;;6073442;23;20441;-85
2021/12/08 01:57:00;;;;;;;2.20;0.83;;;7.30;99.90;;;;;;6072528;23;20438;-84
2021/12/08 01:59:27;;;;;;;1.53;1.10;;;7.30;99.90;;;;;;6103601;23;20430;-86
2021/12/08 02:01:54;;;;;;;1.33;0.87;;;7.20;99.90;;;;;;6060666;23;20787;-89
2021/12/08 02:04:21;;;;;;;1.47;1.00;;;7.30;99.90;;;;;;6112793;23;20462;-85
2021/12/08 02:06:48;;;;;;;2.20;1.70;;;7.10;99.90;;;;;;6086482;23;20504;-87
2021/12/08 02:09:19;;;;;;;3.43;1.17;;;7.20;99.90;;;;;;6078666;23;20829;-84
2021/12/08 02:11:57;;;;;;;1.30;1.10;;;7.30;99.90;;;;;;6078331;23;20421;-85
2021/12/08 02:14:24;;;;;;;4.43;1.50;;;7.20;99.90;;;;;;6079490;23;20459;-87
2021/12/08 02:17:12;;;;;;;1.67;1.10;;;7.10;99.90;;;;;;6104199;23;20439;-85
2021/12/08 02:19:48;;;;;;;2.10;1.57;;;7.20;99.90;;;;;;6057972;23;20447;-86
2021/12/08 02:22:25;;;;;;;5.10;1.30;;;7.10;99.90;;;;;;6081922;23;20404;-86
2021/12/08 02:24:51;;;;;;;2.07;1.40;;;7.20;99.90;;;;;;6105078;23;20507;-85
2021/12/08 02:27:21;;;;;;;2.87;1.70;;;7.10;99.90;;;;;;6079963;23;20860;-85
2021/12/08 02:29:59;;;;;;;2.30;1.40;;;7.10;99.90;;;;;;6081424;23;20411;-84
2021/12/08 02:46:44;;;;;;;2.20;2.00;;;6.90;99.90;;;;;;6078827;23;20418;-85
2021/12/08 02:47:03;;;;;;;1.80;1.33;;;6.90;99.90;;;;;;6095797;23;20431;-86
2021/12/08 02:49:44;;;;;;;2.03;1.70;;;7.00;99.90;;;;;;6061482;23;20502;-85
2021/12/08 02:52:14;;;;;;;1.90;1.40;;;6.90;99.90;;;;;;6088187;23;20436;-86
2021/12/08 02:58:03;;;;;;;2.67;1.23;;;6.80;99.90;;;;;;6059010;23;21043;-87
2021/12/08 03:00:34;;;;;;;1.67;1.57;;;6.90;99.90;;;;;;6039698;23;20678;-86
2021/12/08 03:03:12;;;;;;;1.97;1.43;;;6.90;99.90;;;;;;6062601;23;20397;-86
2021/12/08 03:05:42;;;;;;;1.90;1.50;;;7.00;99.90;;;;;;6041380;23;20428;-85
2021/12/08 03:08:10;;;;;;;1.97;1.50;;;7.00;99.90;;;;;;6039832;23;20451;-85
2021/12/08 03:10:46;;;;;;;3.80;1.60;;;7.00;99.90;;;;;;6041085;23;20416;-85
2021/12/08 03:13:15;;;;;;;1.47;1.20;;;7.10;99.90;;;;;;6039459;23;20419;-86
2021/12/08 03:15:43;;;;;;;0.70;0.70;;;7.20;99.90;;;;;;6040342;23;20425;-83
2021/12/08 03:18:10;;;;;;;1.37;1.27;;;7.10;99.90;;;;;;6040411;23;20881;-86
2021/12/08 03:20:44;;;;;;;1.37;0.93;;;6.90;99.90;;;;;;6039720;23;20523;-87
2021/12/08 03:23:19;;;;;;;1.30;1.20;;;6.90;99.90;;;;;;6039117;23;20409;-83
2021/12/08 03:25:55;;;;;;;2.70;1.30;;;6.90;99.90;;;;;;6039229;23;20495;-85
2021/12/08 03:28:27;;;;;;;1.20;1.10;;;6.90;99.90;;;;;;6062535;23;20480;-82
2021/12/08 03:33:29;;;;;;;3.70;1.60;;;6.90;99.90;;;;;;6062426;23;20505;-86
2021/12/08 03:35:56;;;;;;;1.00;0.97;;;6.90;99.90;;;;;;6044918;23;20479;-87
2021/12/08 03:38:23;;;;;;;1.43;1.03;;;6.80;99.90;;;;;;6060626;23;20418;-86
2021/12/08 03:40:58;;;;;;;1.30;1.30;;;6.80;99.90;;;;;;6063463;23;20471;-88
2021/12/08 03:43:37;;;;;;;0.90;0.73;;;6.90;99.90;;;;;;6066139;23;20446;-85
2021/12/08 03:46:04;;;;;;;2.50;1.40;;;6.80;99.90;;;;;;6064637;23;20419;-86
2021/12/08 03:48:47;;;;;;;1.60;1.50;;;6.80;99.90;;;;;;6068211;23;20435;-85
2021/12/08 03:51:16;;;;;;;2.20;1.47;;;6.80;99.90;;;;;;6037966;23;20478;-85
2021/12/08 03:54:10;;;;;;;1.10;1.10;;;6.90;99.90;;;;;;6041841;23;20440;-87
2021/12/08 03:56:45;;;;;;;1.93;1.53;;;6.80;99.90;;;;;;6054971;23;20432;-85
2021/12/08 03:59:19;;;;;;;1.40;1.30;;;6.80;99.90;;;;;;6069141;23;20429;-83
2021/12/08 04:02:28;;;;;;;1.50;1.40;;;6.90;99.90;;;;;;6062376;23;20456;-86
2021/12/08 04:05:02;;;;;;;2.90;1.80;;;6.90;99.90;;;;;;6068410;23;20441;-85
2021/12/08 04:07:45;;;;;;;1.80;1.40;;;6.90;99.90;;;;;;6065234;23;20431;-83
2021/12/08 04:10:20;;;;;;;1.53;1.03;;;6.90;99.90;;;;;;6073353;23;20428;-84
2021/12/08 04:13:02;;;;;;;1.33;1.23;;;6.90;99.90;;;;;;6067787;23;21227;-85
2021/12/08 04:15:35;;;;;;;2.90;1.60;;;7.00;99.90;;;;;;6068197;23;20406;-86
2021/12/08 04:18:10;;;;;;;1.50;1.27;;;7.10;99.90;;;;;;6066889;23;20423;-87
2021/12/08 04:21:01;;;;;;;1.23;1.13;;;7.10;99.90;;;;;;6065257;23;20451;-86
2021/12/08 04:23:36;;;;;;;2.07;1.60;;;7.10;99.90;;;;;;6066278;23;20449;-84
2021/12/08 04:26:18;;;;;;;3.40;1.47;;;7.10;99.90;;;;;;6068190;23;20746;-84
2021/12/08 04:29:05;;;;;;;2.10;1.33;;;7.00;99.90;;;;;;6068664;23;20835;-87
2021/12/08 04:31:35;;;;;;;4.07;1.47;;;7.00;99.90;;;;;;6067754;23;20447;-89
2021/12/08 04:34:16;;;;;;;2.07;1.87;;;7.00;99.90;;;;;;6060853;23;20442;-84
2021/12/08 04:36:49;;;;;;;2.57;1.67;;;7.00;99.90;;;;;;6061142;23;20512;-85
2021/12/08 04:39:27;;;;;;;4.20;1.93;;;6.90;99.90;;;;;;6063008;23;20408;-84
2021/12/08 04:42:02;;;;;;;1.50;1.40;;;7.00;99.90;;;;;;6065397;23;20455;-85
2021/12/08 04:44:39;;;;;;;2.10;1.97;;;7.00;99.90;;;;;;6065599;23;20444;-85
2021/12/08 05:02:02;;;;;;;1.53;1.40;;;7.00;99.90;;;;;;6102026;23;20473;-85
2021/12/08 05:09:58;;;;;;;2.10;1.90;;;7.10;99.90;;;;;;6129162;23;20399;-85
2021/12/08 05:12:32;;;;;;;1.93;1.83;;;7.20;99.90;;;;;;6127003;23;20511;-85
2021/12/08 05:15:15;;;;;;;3.17;1.50;;;7.10;99.90;;;;;;6127768;23;20974;-86
2021/12/08 05:17:48;;;;;;;1.77;1.40;;;7.10;99.90;;;;;;6100196;23;20493;-86
2021/12/08 05:20:26;;;;;;;2.33;1.20;;;7.20;99.90;;;;;;6103438;23;20429;-87
2021/12/08 05:23:17;;;;;;;3.40;1.90;;;7.20;99.90;;;;;;6104141;23;20497;-86
2021/12/08 05:25:45;;;;;;;1.80;1.70;;;7.20;99.90;;;;;;6094336;23;20441;-86
2021/12/08 05:28:24;;;;;;;2.00;1.80;;;7.20;99.90;;;;;;6122935;23;20417;-86
2021/12/08 05:30:55;;;;;;;2.50;1.60;;;7.10;99.90;;;;;;6098601;23;20950;-85
2021/12/08 05:33:24;;;;;;;3.47;2.37;;;7.10;99.90;;;;;;6100123;23;20418;-85
2021/12/08 05:35:52;;;;;;;5.00;1.50;;;7.10;99.90;;;;;;6103603;23;20421;-84
2021/12/08 05:38:19;;;;;;;1.50;1.40;;;7.20;99.90;;;;;;6103333;23;20839;-86
2021/12/08 05:40:58;;;;;;;5.23;2.00;;;7.10;99.90;;;;;;6102775;23;20446;-85
2021/12/08 05:43:25;;;;;;;6.13;1.77;;;7.00;99.90;;;;;;6128327;23;20398;-86
2021/12/08 05:45:53;;;;;;;1.60;1.50;;;7.10;99.90;;;;;;6103901;23;20425;-85
2021/12/08 05:48:21;;;;;;;1.60;1.50;;;6.90;99.90;;;;;;6101993;23;20415;-86
2021/12/08 05:50:57;;;;;;;3.63;1.70;;;7.10;99.90;;;;;;6102256;23;20421;-85
2021/12/08 05:53:25;;;;;;;2.40;1.73;;;7.20;99.90;;;;;;6126766;23;20406;-87
2021/12/08 05:55:53;;;;;;;2.03;1.80;;;7.40;99.90;;;;;;6102296;23;20439;-86
2021/12/08 05:58:31;;;;;;;1.83;1.73;;;7.20;99.90;;;;;;6127432;23;20496;-87
2021/12/08 06:01:15;;;;;;;2.70;1.50;;;7.20;99.90;;;;;;6102497;23;20879;-86
2021/12/08 06:03:44;;;;;;;3.17;1.90;;;7.30;99.90;;;;;;6100635;23;20541;-87
2021/12/08 06:06:12;;;;;;;4.83;1.97;;;7.30;99.90;;;;;;6128624;23;20480;-85
2021/12/08 06:08:41;;;;;;;6.13;2.07;;;7.30;99.90;;;;;;6126628;23;20501;-85
2021/12/08 06:11:10;;;;;;;3.10;1.77;;;7.20;99.90;;;;;;6128345;23;20423;-86
2021/12/08 06:13:39;;;;;;;2.40;1.90;;;7.40;99.90;;;;;;6128133;23;20462;-86
2021/12/08 06:16:07;;;;;;;2.97;1.83;;;7.40;99.90;;;;;;6131241;23;20516;-86
2021/12/08 06:18:39;;;;;;;3.13;1.90;;;7.50;99.90;;;;;;6127379;23;20435;-86
2021/12/08 06:21:19;;;;;;;5.00;2.23;;;7.40;99.90;;;;;;6129023;23;20443;-88
2021/12/08 06:23:47;;;;;;;3.60;2.00;;;7.30;99.90;;;;;;6129607;23;20434;-86
2021/12/08 06:26:17;;;;;;;2.07;1.70;;;7.20;99.90;;;;;;6136885;23;20418;-85
2021/12/08 06:28:44;;;;;;;4.83;1.70;;;7.40;99.90;;;;;;6130716;23;20401;-86
2021/12/08 06:31:13;;;;;;;3.33;1.97;;;7.40;99.90;;;;;;6128366;23;20420;-86
2021/12/08 06:33:40;;;;;;;2.87;1.53;;;7.40;99.90;;;;;;6123328;23;21353;-85
2021/12/08 06:36:21;;;;;;;4.80;3.27;;;7.40;99.90;;;;;;6127859;23;20419;-86
2021/12/08 06:38:51;;;;;;;15.20;9.90;;;7.50;99.90;;;;;;6129571;23;20408;-86
2021/12/08 06:41:29;;;;;;;5.40;1.90;;;7.60;99.90;;;;;;6129784;23;20515;-85
2021/12/08 06:44:07;;;;;;;1.50;1.40;;;7.70;99.90;;;;;;6128530;23;20487;-87
2021/12/08 06:46:34;;;;;;;2.80;1.30;;;7.70;99.90;;;;;;6131035;23;20415;-86
2021/12/08 06:49:05;;;;;;;2.83;1.67;;;7.90;99.90;;;;;;6129920;23;20780;-85
2021/12/08 06:51:38;;;;;;;3.90;2.10;;;7.80;99.90;;;;;;6128363;23;20414;-85
2021/12/08 06:54:13;;;;;;;2.37;1.93;;;7.80;99.90;;;;;;6130428;23;20441;-87
2021/12/08 06:56:50;;;;;;;2.20;1.60;;;7.80;99.90;;;;;;6130314;23;20419;-85
2021/12/08 06:59:23;;;;;;;3.30;1.90;;;7.90;99.90;;;;;;6129605;23;20415;-86
2021/12/08 07:02:10;;;;;;;5.90;1.40;;;7.90;99.90;;;;;;6129988;23;20534;-84
2021/12/08 07:05:10;;;;;;;3.73;1.60;;;7.90;99.90;;;;;;6129543;23;20436;-86
2021/12/08 07:07:40;;;;;;;4.70;1.50;;;7.80;99.90;;;;;;6128394;23;20426;-87
2021/12/08 07:10:22;;;;;;;2.73;1.50;;;7.90;99.90;;;;;;6131445;23;20630;-86
2021/12/08 07:12:58;;;;;;;4.30;1.20;;;7.90;99.90;;;;;;6139240;23;20420;-88
2021/12/08 07:15:34;;;;;;;4.17;1.93;;;8.00;99.90;;;;;;6130619;23;20434;-86
2021/12/08 07:18:08;;;;;;;4.27;1.57;;;8.00;99.90;;;;;;6129909;23;20419;-88
2021/12/08 07:20:56;;;;;;;3.93;2.27;;;8.00;99.90;;;;;;6129219;23;20460;-87
2021/12/08 07:23:36;;;;;;;3.13;1.60;;;8.00;99.90;;;;;;6129010;23;20396;-88
2021/12/08 07:26:12;;;;;;;3.60;1.50;;;7.90;99.90;;;;;;6125527;23;20469;-87
2021/12/08 07:28:40;;;;;;;4.87;1.50;;;8.00;99.90;;;;;;6120195;23;20462;-85
2021/12/08 07:31:15;;;;;;;6.30;1.60;;;8.10;99.90;;;;;;6120501;23;20442;-87
2021/12/08 07:33:45;;;;;;;3.60;1.50;;;8.10;99.90;;;;;;6121862;23;20434;-86
2021/12/08 07:36:15;;;;;;;5.37;2.50;;;8.00;99.90;;;;;;6123174;23;20424;-85
2021/12/08 07:38:45;;;;;;;3.00;1.20;;;7.90;99.90;;;;;;6125963;23;20398;-85
2021/12/08 07:41:34;;;;;;;4.30;2.43;;;7.90;99.90;;;;;;6130538;23;20550;-86
2021/12/08 07:44:06;;;;;;;6.13;1.40;;;7.90;99.90;;;;;;6128797;23;20432;-88
2021/12/08 07:46:37;;;;;;;2.23;1.60;;;7.90;99.90;;;;;;6128122;23;20436;-86
2021/12/08 07:49:12;;;;;;;3.00;1.47;;;8.10;99.90;;;;;;6129614;23;20419;-86
2021/12/08 07:51:59;;;;;;;2.10;1.40;;;8.00;99.90;;;;;;6125929;23;20415;-85
2021/12/08 07:54:28;;;;;;;7.07;2.00;;;8.00;99.90;;;;;;6120715;23;20938;-86
2021/12/08 07:56:58;;;;;;;4.37;1.40;;;8.00;99.90;;;;;;6118476;23;20868;-86
2021/12/08 07:59:30;;;;;;;4.30;1.50;;;8.00;99.90;;;;;;6117246;23;20423;-89
2021/12/08 08:02:06;;;;;;;6.80;1.90;;;7.90;99.90;;;;;;6121557;23;20451;-86
2021/12/08 08:04:38;;;;;;;3.37;1.70;;;7.90;99.90;;;;;;6125760;23;20441;-86
2021/12/08 08:07:07;;;;;;;4.87;2.73;;;7.90;99.90;;;;;;6128041;23;20420;-84
2021/12/08 08:09:40;;;;;;;4.10;2.13;;;8.00;99.90;;;;;;6129037;23;20479;-85
2021/12/08 08:12:15;;;;;;;3.63;2.00;;;8.10;99.90;;;;;;6130200;23;20522;-86
2021/12/08 08:14:49;;;;;;;2.90;2.10;;;8.10;99.90;;;;;;6128742;23;20440;-86
2021/12/08 08:17:19;;;;;;;4.90;2.13;;;7.90;99.90;;;;;;6124315;23;20462;-86
2021/12/08 08:19:48;;;;;;;3.27;2.20;;;7.80;99.90;;;;;;6157762;23;20482;-84
2021/12/08 08:22:21;;;;;;;2.40;1.77;;;7.70;99.90;;;;;;6130495;23;20442;-84
2021/12/08 08:24:51;;;;;;;4.73;1.93;;;7.60;99.90;;;;;;6130072;23;20430;-84
2021/12/08 08:27:19;;;;;;;4.73;1.63;;;7.60;99.90;;;;;;6123222;23;20419;-85
2021/12/08 08:29:47;;;;;;;4.57;2.30;;;7.30;99.90;;;;;;6121038;23;20488;-85
2021/12/08 08:32:24;;;;;;;4.80;1.97;;;7.50;99.90;;;;;;6123668;23;20437;-86
2021/12/08 08:35:05;;;;;;;2.63;2.40;;;7.60;99.90;;;;;;6150279;23;20462;-85
2021/12/08 08:37:33;;;;;;;4.63;2.37;;;7.50;99.90;;;;;;6128590;23;20863;-85
2021/12/08 08:40:18;;;;;;;3.63;2.10;;;7.70;99.90;;;;;;6130011;23;20417;-86
2021/12/08 08:42:56;;;;;;;10.87;2.60;;;7.60;99.90;;;;;;6108065;23;20443;-87
2021/12/08 08:45:37;;;;;;;3.50;2.00;;;7.50;99.90;;;;;;6156230;23;20444;-86
2021/12/08 08:48:22;;;;;;;2.43;1.90;;;7.70;99.90;;;;;;6129510;23;20423;-88
2021/12/08 08:51:31;;;;;;;5.10;2.23;;;7.70;99.90;;;;;;6132370;23;20826;-85
2021/12/08 08:54:05;;;;;;;5.33;2.20;;;7.70;99.90;;;;;;6128568;23;20437;-84
2021/12/08 08:56:56;;;;;;;7.70;2.90;;;7.70;99.90;;;;;;6131006;23;20437;-85
2021/12/08 08:59:31;;;;;;;2.73;2.30;;;7.80;99.90;;;;;;6129911;23;20446;-86
2021/12/08 09:02:06;;;;;;;5.70;2.50;;;7.90;99.90;;;;;;6130102;23;20445;-86
2021/12/08 09:04:41;;;;;;;6.17;1.90;;;7.80;99.90;;;;;;6129211;23;20431;-84
2021/12/08 09:07:21;;;;;;;3.43;2.07;;;8.10;99.90;;;;;;6130181;23;20418;-85
2021/12/08 09:09:50;;;;;;;13.57;2.60;;;8.20;99.90;;;;;;6129567;23;20470;-86
2021/12/08 09:12:58;;;;;;;3.00;1.87;;;8.20;99.90;;;;;;6130744;23;20422;-88
2021/12/08 09:18:48;;;;;;;3.37;2.40;;;8.30;99.90;;;;;;6158580;23;20572;-85
2021/12/08 09:21:36;;;;;;;4.10;1.90;;;8.20;99.90;;;;;;6131028;23;20419;-85
2021/12/08 09:24:50;;;;;;;8.40;3.13;;;8.20;99.90;;;;;;6134670;23;20438;-86
2021/12/08 09:27:31;;;;;;;3.13;2.00;;;8.10;99.90;;;;;;6118140;23;20431;-87
2021/12/08 09:30:21;;;;;;;6.40;3.93;;;8.10;99.90;;;;;;6138054;23;20552;-87
2021/12/08 09:32:54;;;;;;;4.40;1.80;;;8.00;99.90;;;;;;6127660;23;20415;-85
2021/12/08 09:35:35;;;;;;;7.60;2.23;;;7.90;99.90;;;;;;6132894;23;20443;-84
2021/12/08 09:38:15;;;;;;;4.20;1.90;;;8.00;99.90;;;;;;6137372;23;20439;-84
2021/12/08 09:40:53;;;;;;;8.07;2.33;;;8.20;99.90;;;;;;6152886;23;20414;-85
2021/12/08 09:43:26;;;;;;;6.07;2.33;;;8.30;99.90;;;;;;6126453;23;20481;-83
2021/12/08 09:46:06;;;;;;;4.17;1.80;;;8.20;99.90;;;;;;6152710;23;20408;-85
2021/12/08 09:48:36;;;;;;;9.63;3.00;;;8.30;99.90;;;;;;6126469;23;20848;-84
2021/12/08 09:51:03;;;;;;;8.10;2.40;;;8.20;99.90;;;;;;6135430;23;20442;-88
2021/12/08 09:53:33;;;;;;;4.53;2.30;;;8.20;99.90;;;;;;6148038;23;20459;-88
2021/12/08 09:56:03;;;;;;;3.13;2.10;;;8.30;99.90;;;;;;6173672;23;20438;-87
2021/12/08 09:58:30;;;;;;;2.87;1.87;;;8.30;99.90;;;;;;6149740;23;20410;-86
2021/12/08 10:00:59;;;;;;;7.50;2.17;;;8.40;99.90;;;;;;6150609;23;20407;-88
2021/12/08 10:03:27;;;;;;;7.70;2.23;;;8.50;99.90;;;;;;6136543;23;20454;-86
2021/12/08 10:05:55;;;;;;;2.90;1.60;;;8.50;99.90;;;;;;6130835;23;20413;-85
2021/12/08 10:08:25;;;;;;;5.30;2.00;;;8.40;99.90;;;;;;6132568;23;20439;-85
2021/12/08 10:11:10;;;;;;;3.40;2.30;;;8.50;99.90;;;;;;6135330;23;20421;-86
2021/12/08 10:13:39;;;;;;;4.00;2.50;;;8.50;99.90;;;;;;6157794;23;20439;-87
2021/12/08 10:16:07;;;;;;;5.80;2.03;;;8.30;99.90;;;;;;6132068;23;20414;-85
2021/12/08 10:18:35;;;;;;;7.50;2.60;;;8.50;99.90;;;;;;6131720;23;20424;-85
2021/12/08 10:21:03;;;;;;;9.53;2.67;;;8.60;99.90;;;;;;6131324;23;20482;-86
2021/12/08 10:23:36;;;;;;;5.27;2.00;;;8.70;99.90;;;;;;6133084;23;20458;-86
2021/12/08 10:26:17;;;;;;;3.67;1.80;;;8.70;99.90;;;;;;6134539;23;20411;-86
2021/12/08 10:28:51;;;;;;;7.53;2.40;;;8.70;99.90;;;;;;6129583;23;20409;-86
2021/12/08 10:31:29;;;;;;;4.00;1.70;;;8.70;99.90;;;;;;6132175;23;20413;-88
2021/12/08 10:34:11;;;;;;;3.57;1.60;;;8.70;99.90;;;;;;6127282;23;20453;-85
2021/12/08 10:36:55;;;;;;;7.53;2.37;;;8.80;99.90;;;;;;6126793;23;20415;-84
2021/12/08 10:39:52;;;;;;;2.63;1.70;;;8.70;99.90;;;;;;6133026;23;20479;-85
2021/12/08 10:42:26;;;;;;;3.73;1.80;;;8.60;99.90;;;;;;6132843;23;20442;-85
2021/12/08 10:45:09;;;;;;;5.00;1.53;;;8.60;99.90;;;;;;6132736;23;20424;-86
2021/12/08 10:47:50;;;;;;;5.60;1.70;;;8.70;99.90;;;;;;6132340;23;20406;-87
2021/12/08 10:56:11;;;;;;;7.90;2.53;;;8.90;98.90;;;;;;6151934;23;20408;-87
2021/12/08 10:58:43;;;;;;;3.53;1.57;;;8.90;98.40;;;;;;6125544;23;20442;-88
2021/12/08 11:01:17;;;;;;;3.13;1.63;;;8.90;98.40;;;;;;6131098;23;20404;-87
2021/12/08 11:03:46;;;;;;;6.70;1.50;;;8.80;98.20;;;;;;6156886;23;20484;-87
2021/12/08 11:06:16;;;;;;;4.80;2.03;;;9.00;98.70;;;;;;6131526;23;20412;-86
2021/12/08 11:08:46;;;;;;;3.03;1.60;;;9.20;98.00;;;;;;6157357;23;20577;-87
2021/12/08 11:11:20;;;;;;;3.30;1.33;;;9.00;97.20;;;;;;6134347;23;20415;-87
2021/12/08 11:13:54;;;;;;;4.30;1.70;;;9.10;97.60;;;;;;6130620;23;20480;-86
2021/12/08 11:16:27;;;;;;;3.57;1.90;;;8.90;97.20;;;;;;6131780;23;20422;-87
2021/12/08 11:19:10;;;;;;;5.13;2.23;;;8.90;97.40;;;;;;6130829;23;20454;-85
2021/12/08 11:21:42;;;;;;;2.97;1.70;;;9.00;97.20;;;;;;6131323;23;21016;-85
2021/12/08 11:24:31;;;;;;;3.40;1.77;;;9.00;96.80;;;;;;6132600;23;20550;-86
2021/12/08 11:27:03;;;;;;;4.00;1.80;;;9.00;96.50;;;;;;6131211;23;20526;-85
2021/12/08 11:29:42;;;;;;;6.13;1.67;;;9.00;96.20;;;;;;6131986;23;20418;-85
2021/12/08 11:32:18;;;;;;;2.07;1.00;;;8.90;96.10;;;;;;6133545;23;20448;-85
2021/12/08 11:34:47;;;;;;;2.93;1.60;;;9.10;95.80;;;;;;6130228;23;20440;-88
2021/12/08 11:37:32;;;;;;;4.17;1.37;;;9.10;95.40;;;;;;6133291;23;20424;-85
2021/12/08 11:40:01;;;;;;;4.43;2.67;;;9.10;95.40;;;;;;6136308;23;20430;-85
2021/12/08 11:42:36;;;;;;;4.67;1.50;;;9.10;95.60;;;;;;6137116;23;20564;-86
2021/12/08 11:45:15;;;;;;;3.47;1.53;;;9.20;95.40;;;;;;6145423;23;20441;-88
2021/12/08 11:47:43;;;;;;;4.53;2.20;;;9.20;95.60;;;;;;6149149;23;20490;-88
2021/12/08 11:50:52;;;;;;;;;;;;;;;;;;;;;
2021/12/08 12:00:34;;;;;;;2.93;1.40;;;9.30;95.10;;;;;;6151634;23;20394;-85
2021/12/08 12:03:19;;;;;;;2.33;1.43;;;9.20;95.00;;;;;;6130480;23;20875;-85
2021/12/08 12:05:48;;;;;;;4.17;1.37;;;9.20;95.40;;;;;;6130136;23;20699;-86
2021/12/08 12:08:18;;;;;;;3.57;1.40;;;9.10;95.80;;;;;;6126982;23;20419;-85
2021/12/08 12:10:50;;;;;;;3.73;1.57;;;9.40;96.20;;;;;;6153239;23;20470;-86
2021/12/08 12:13:17;;;;;;;4.73;1.30;;;9.50;96.00;;;;;;6123975;23;20526;-88
2021/12/08 12:15:48;;;;;;;4.93;1.50;;;9.50;96.00;;;;;;6124739;23;21151;-85
2021/12/08 12:18:38;;;;;;;4.33;1.60;;;9.50;96.00;;;;;;6130804;23;20781;-85
2021/12/08 12:21:36;;;;;;;5.03;1.07;;;9.50;95.00;;;;;;6129965;23;20358;-86
2021/12/08 12:24:29;;;;;;;4.07;1.43;;;9.40;95.20;;;;;;6125904;23;20447;-85
2021/12/08 12:27:09;;;;;;;3.87;1.30;;;9.40;95.00;;;;;;6154930;23;20407;-86
2021/12/08 12:29:56;;;;;;;7.60;1.80;;;9.40;95.10;;;;;;6129160;23;20892;-88
2021/12/08 12:35:58;;;;;;;2.53;1.50;;;9.50;94.60;;;;;;6152313;23;20546;-84
2021/12/08 12:38:36;;;;;;;5.03;1.73;;;9.50;94.70;;;;;;6128450;23;20415;-86
2021/12/08 12:41:05;;;;;;;5.10;1.33;;;9.60;94.50;;;;;;6127384;23;20419;-86
2021/12/08 12:43:38;;;;;;;5.17;1.30;;;9.50;94.30;;;;;;6128051;23;20542;-89
2021/12/08 12:46:16;;;;;;;4.37;1.77;;;9.30;94.80;;;;;;6128966;23;20509;-85
2021/12/08 12:48:51;;;;;;;9.90;1.87;;;9.50;94.60;;;;;;6127079;23;20426;-88
2021/12/08 12:51:21;;;;;;;5.03;1.70;;;9.20;94.10;;;;;;6120754;23;20410;-86
2021/12/08 12:53:56;;;;;;;1.87;1.33;;;9.30;94.70;;;;;;6121429;23;20666;-87
2021/12/08 12:56:30;;;;;;;2.80;1.40;;;9.40;94.40;;;;;;6118623;23;20421;-86
2021/12/08 12:58:58;;;;;;;4.40;1.50;;;9.40;94.20;;;;;;6142457;23;20423;-86
2021/12/08 13:01:33;;;;;;;4.63;1.70;;;9.50;94.00;;;;;;6129985;23;20416;-86
2021/12/08 13:04:35;;;;;;;6.30;1.60;;;9.50;93.70;;;;;;6132146;23;20463;-87
2021/12/08 13:07:17;;;;;;;3.33;1.57;;;9.40;93.70;;;;;;6137347;23;20371;-88
2021/12/08 13:10:13;;;;;;;3.63;1.43;;;9.40;93.80;;;;;;6129225;23;20461;-88
2021/12/08 13:12:42;;;;;;;2.13;1.30;;;9.40;93.80;;;;;;6130191;23;21216;-84
2021/12/08 13:15:19;;;;;;;5.17;2.93;;;9.40;94.00;;;;;;6129864;23;21083;-87
2021/12/08 13:18:09;;;;;;;6.90;1.37;;;9.30;94.00;;;;;;6131496;23;20415;-85
2021/12/08 13:20:56;;;;;;;3.47;1.40;;;9.30;94.30;;;;;;6129236;23;20417;-89
2021/12/08 13:23:29;;;;;;;5.30;1.40;;;9.40;94.20;;;;;;6131086;23;20447;-88
2021/12/08 13:26:05;;;;;;;4.53;2.10;;;9.40;94.10;;;;;;6138923;23;20421;-88
2021/12/08 13:28:38;;;;;;;1.53;1.30;;;9.50;94.20;;;;;;6133569;23;20438;-85
2021/12/08 13:31:24;;;;;;;5.80;1.17;;;9.40;94.00;;;;;;6156959;23;20426;-86
2021/12/08 13:33:51;;;;;;;3.00;1.60;;;9.30;94.20;;;;;;6133639;23;20435;-88
2021/12/08 13:36:20;;;;;;;5.23;2.70;;;9.40;94.30;;;;;;6133522;23;20430;-87
2021/12/08 13:39:18;;;;;;;4.43;1.37;;;9.40;94.40;;;;;;6130206;23;20419;-88
2021/12/08 13:42:14;;;;;;;2.47;0.90;;;9.30;94.50;;;;;;6132723;23;20416;-86
2021/12/08 13:44:54;;;;;;;2.53;1.40;;;9.30;94.60;;;;;;6131913;23;20426;-87
2021/12/08 13:47:37;;;;;;;2.70;1.13;;;9.20;94.60;;;;;;6131810;23;20489;-87
2021/12/08 13:50:12;;;;;;;2.53;1.03;;;9.30;95.20;;;;;;6138800;23;20419;-88
2021/12/08 13:53:13;;;;;;;3.57;1.67;;;9.30;94.80;;;;;;6165547;23;20427;-89
2021/12/08 13:55:44;;;;;;;4.07;1.40;;;9.20;94.90;;;;;;6125467;23;20407;-86
2021/12/08 13:58:17;;;;;;;4.23;1.20;;;9.20;95.10;;;;;;6117664;23;20411;-89
2021/12/08 14:00:51;;;;;;;7.07;2.07;;;9.20;95.10;;;;;;6126261;23;20913;-86
2021/12/08 14:03:47;;;;;;;4.67;1.67;;;9.30;95.10;;;;;;6129947;23;20563;-87
2021/12/08 14:06:18;;;;;;;7.00;1.37;;;9.10;95.40;;;;;;6159056;23;20817;-87
2021/12/08 14:08:46;;;;;;;5.33;1.43;;;9.20;95.40;;;;;;6147907;23;20398;-87
2021/12/08 14:11:17;;;;;;;3.93;1.60;;;9.20;95.20;;;;;;6141351;23;20494;-89
2021/12/08 14:13:46;;;;;;;5.17;1.60;;;9.20;95.00;;;;;;6160857;23;20438;-85
2021/12/08 14:16:18;;;;;;;4.20;1.67;;;9.30;95.10;;;;;;6129298;23;20415;-89
2021/12/08 14:18:50;;;;;;;5.37;2.60;;;9.30;95.50;;;;;;6127476;23;20418;-84
2021/12/08 14:21:36;;;;;;;6.20;2.73;;;9.30;95.30;;;;;;6134125;23;20969;-86
2021/12/08 14:24:23;;;;;;;6.03;1.70;;;9.50;94.40;;;;;;6132253;23;20447;-90
2021/12/08 14:26:51;;;;;;;3.27;1.87;;;9.50;93.60;;;;;;6128341;23;20450;-85
2021/12/08 14:29:20;;;;;;;6.03;1.67;;;9.40;93.50;;;;;;6127730;23;20502;-87
2021/12/08 14:31:56;;;;;;;6.43;3.43;;;9.40;93.50;;;;;;6127906;23;20423;-86
2021/12/08 14:34:34;;;;;;;2.43;1.03;;;9.30;93.40;;;;;;6128589;23;20443;-85
2021/12/08 14:37:17;;;;;;;2.30;1.23;;;9.20;93.60;;;;;;6126888;23;20419;-86
2021/12/08 14:39:48;;;;;;;5.10;1.00;;;9.40;93.00;;;;;;6128545;23;20521;-87
2021/12/08 14:42:25;;;;;;;5.40;1.23;;;9.30;92.90;;;;;;6132317;23;20522;-87
2021/12/08 14:44:56;;;;;;;3.67;0.90;;;9.30;92.70;;;;;;6126533;23;20475;-84